Shinkoumaru No 5 — JD3346 — position and weather

sailwx.info

Track history (hours):
 
Tides and Currents Weather Stations Pressure Air Temp Water Temp Dewpoint Dewpoint Depression Visibility Wind Speed Wind Dir Waves Ship Positions

Shinkoumaru No 5

Last reported at 2018-Feb-21 06:07 UTC. Time now 2018-Feb-21 17:33 UTC.
Position N 34°34' E 138°15'.

Length 75 m; draft 4.7 m.

Type: Cargo ship. MMSI: 431003394.

Date/timePositionNaut miles runAvg speedWind from/ knotsBaromVisibWave heightAir tempDewpointWater temp
2018-Feb-21 06:07N 34°34' E 138°15'2312.3
2018-Feb-21 04:16N 34°35' E 138°42'513.3
2018-Feb-21 03:51N 34°35' E 138°49'512.4
2018-Feb-21 03:29N 34°36' E 138°54'811.6
2018-Feb-21 02:48N 34°41' E 139°02'2212.5
2018-Feb-21 01:00N 34°57' E 139°20'712.3
2018-Feb-21 00:29N 35°00' E 139°27'712.7
2018-Feb-20 23:56N 35°04' E 139°35'613.1
2018-Feb-20 23:29N 35°07' E 139°41'612.7
2018-Feb-20 23:00N 35°12' E 139°45'611.3
2018-Feb-20 22:31N 35°17' E 139°45'611.9
2018-Feb-20 22:01N 35°23' E 139°42'510.2
2018-Feb-20 21:31N 35°25' E 139°48'510.1
2018-Feb-20 20:58N 35°22' E 139°54'0 0.1
2018-Feb-20 20:28N 35°22' E 139°54'0 0.0
2018-Feb-20 19:52N 35°22' E 139°54'0 0.0
2018-Feb-20 19:25N 35°22' E 139°54'0 0.0
2018-Feb-20 18:58N 35°22' E 139°54'0 0.0
2018-Feb-20 18:28N 35°22' E 139°54'0 0.0
2018-Feb-20 17:58N 35°22' E 139°54'0 0.0
2018-Feb-20 17:22N 35°22' E 139°54'0 0.0
2018-Feb-20 16:58N 35°22' E 139°54'0 0.0
2018-Feb-20 16:28N 35°22' E 139°54'0 0.0
2018-Feb-20 15:58N 35°22' E 139°54'0 0.0
2018-Feb-20 15:28N 35°22' E 139°54'0 0.0
2018-Feb-20 14:58N 35°22' E 139°54'0 0.0
2018-Feb-20 14:28N 35°22' E 139°54'0 0.0
2018-Feb-20 13:49N 35°22' E 139°54'0 0.0
2018-Feb-20 13:22N 35°22' E 139°54'0 0.0
2018-Feb-20 12:58N 35°22' E 139°54'0 0.0
2018-Feb-20 12:22N 35°22' E 139°54'0 0.0
2018-Feb-20 11:40N 35°22' E 139°54'0 0.0
2018-Feb-20 11:25N 35°22' E 139°54'0 0.0
2018-Feb-20 11:00N 35°22' E 139°54'1 1.3
2018-Feb-20 10:28N 35°22' E 139°53'0 0.1
2018-Feb-20 10:01N 35°22' E 139°53'4 8.3
2018-Feb-20 09:30N 35°26' E 139°52'612.4
2018-Feb-20 09:00N 35°32' E 139°55'612.4
2018-Feb-20 08:30N 35°38' E 139°58'  
2018-Feb-18 00:20N 35°39' E 139°58'1 0.4
2018-Feb-17 21:06N 35°37' E 139°58'0 0.0
2018-Feb-17 20:42N 35°37' E 139°58'0 0.0
2018-Feb-17 20:30N 35°37' E 139°58'2 3.0
2018-Feb-17 19:57N 35°36' E 139°58'611.9
2018-Feb-17 19:30N 35°31' E 139°54'611.7
2018-Feb-17 19:00N 35°27' E 139°49'611.6
2018-Feb-17 18:30N 35°22' E 139°45'510.7
2018-Feb-17 18:01N 35°17' E 139°46'510.6
2018-Feb-17 17:30N 35°12' E 139°47'510.7
2018-Feb-17 17:00N 35°07' E 139°44'610.6
2018-Feb-17 16:24N 35°02' E 139°39'1311.8
2018-Feb-17 15:16N 34°56' E 139°25'512.7
2018-Feb-17 14:52N 34°53' E 139°19'512.8
2018-Feb-17 14:30N 34°50' E 139°15'913.0
2018-Feb-17 13:49N 34°43' E 139°08'412.3
2018-Feb-17 13:30N 34°41' E 139°04'612.6
2018-Feb-17 13:00N 34°37' E 138°58'713.2
2018-Feb-17 12:29N 34°34' E 138°51'612.3
2018-Feb-17 12:00N 34°34' E 138°43'812.2
2018-Feb-17 11:20N 34°34' E 138°34'411.8
2018-Feb-17 11:00N 34°34' E 138°29'612.0
2018-Feb-17 10:29N 34°34' E 138°21'612.3
2018-Feb-17 10:00N 34°34' E 138°14'712.8
2018-Feb-17 09:29N 34°34' E 138°06'4212.2
2018-Feb-17 06:03N 34°33' E 137°15'3310.8
2018-Feb-17 03:02N 34°10' E 136°48'112.9
2018-Feb-17 02:56N 34°09' E 136°47'85 9.1
2018-Feb-16 17:30N 33°48' E 135°07'712.1
2018-Feb-16 16:57N 33°53' E 135°02'612.8
2018-Feb-16 16:30N 33°59' E 135°00'612.6
2018-Feb-16 16:00N 34°05' E 134°59'612.7
2018-Feb-16 15:30N 34°11' E 134°59'612.9
2018-Feb-16 15:01N 34°18' E 134°58'612.3
2018-Feb-16 14:30N 34°24' E 134°60'612.0
2018-Feb-16 14:01N 34°30' E 135°01'611.3
2018-Feb-16 13:30N 34°35' E 135°03'4 8.9
2018-Feb-16 13:00N 34°37' E 134°58'5 9.9
2018-Feb-16 12:30N 34°38' E 134°52'510.2
2018-Feb-16 12:00N 34°42' E 134°48'1 0.1
2018-Feb-15 20:27N 34°43' E 134°49'2 4.3
2018-Feb-15 20:00N 34°42' E 134°50'1 0.1
2018-Feb-15 05:15N 34°43' E 134°51'0 0.0
2018-Feb-15 04:39N 34°43' E 134°51'0 0.0
2018-Feb-15 04:22N 34°43' E 134°51'0 0.4
2018-Feb-15 04:00N 34°43' E 134°51'4 7.5
2018-Feb-15 03:30N 34°39' E 134°52'611.3
2018-Feb-15 03:00N 34°38' E 134°58'612.4
2018-Feb-15 02:30N 34°36' E 135°05'713.1
2018-Feb-15 02:00N 34°34' E 135°13'612.9
2018-Feb-15 01:30N 34°33' E 135°21'3 4.6
2018-Feb-15 00:56N 34°31' E 135°24'0 0.0
2018-Feb-15 00:28N 34°31' E 135°24'0 0.3
2018-Feb-15 00:00N 34°31' E 135°23'2 4.1
2018-Feb-14 23:31N 34°33' E 135°21'0 0.4
2018-Feb-14 23:00N 34°32' E 135°22'0 0.0
2018-Feb-14 22:27N 34°32' E 135°22'0 0.0
2018-Feb-14 22:00N 34°32' E 135°22'0 0.0
2018-Feb-14 21:30N 34°32' E 135°22'0 0.0
2018-Feb-14 20:57N 34°32' E 135°22'0 0.0
2018-Feb-14 20:30N 34°32' E 135°22'0 0.0
2018-Feb-14 20:00N 34°32' E 135°22'0 0.1
2018-Feb-14 19:27N 34°32' E 135°22'0 0.1
2018-Feb-14 18:57N 34°32' E 135°22'0 0.0
2018-Feb-14 18:30N 34°32' E 135°22'0 0.1
2018-Feb-14 17:57N 34°32' E 135°22'0 0.0
2018-Feb-14 17:30N 34°32' E 135°22'0 0.1
2018-Feb-14 17:00N 34°32' E 135°22'0 0.0
2018-Feb-14 16:27N 34°32' E 135°22'0 0.1
2018-Feb-14 16:00N 34°32' E 135°22'4 7.7
2018-Feb-14 15:30N 34°33' E 135°17'612.3
2018-Feb-14 15:01N 34°34' E 135°10'713.6
2018-Feb-14 14:31N 34°36' E 135°02'713.1
2018-Feb-14 14:00N 34°35' E 134°54'713.1
2018-Feb-14 13:30N 34°33' E 134°47'612.8
2018-Feb-14 13:00N 34°30' E 134°40'612.8
2018-Feb-14 12:30N 34°28' E 134°32'612.7
2018-Feb-14 12:00N 34°25' E 134°25'712.3
2018-Feb-14 11:28N 34°24' E 134°17'8110.8
2018-Feb-14 03:57N 34°06' E 132°42'512.6
2018-Feb-14 03:30N 34°04' E 132°36'811.3
2018-Feb-14 02:50N 34°05' E 132°27'410.6
2018-Feb-14 02:30N 34°08' E 132°29'612.3
2018-Feb-14 02:00N 34°14' E 132°32'1 1.9
2018-Feb-14 01:28N 34°15' E 132°33'0 0.0
2018-Feb-14 00:55N 34°15' E 132°33'0 0.0
2018-Feb-14 00:25N 34°15' E 132°33'0 0.0
2018-Feb-13 23:52N 34°15' E 132°33'0 0.0
2018-Feb-13 23:28N 34°15' E 132°33'0 0.2
2018-Feb-13 22:58N 34°14' E 132°32'0 0.2
2018-Feb-13 22:29N 34°14' E 132°32'0 0.0
2018-Feb-13 22:00N 34°14' E 132°32'0 0.4
2018-Feb-13 21:30N 34°15' E 132°32'0 0.0
2018-Feb-13 21:00N 34°15' E 132°32'0 0.0
2018-Feb-13 20:30N 34°15' E 132°32'0 0.0
2018-Feb-13 20:00N 34°15' E 132°32'0 0.0
2018-Feb-13 19:27N 34°15' E 132°32'0 0.1
2018-Feb-13 19:00N 34°15' E 132°32'0 0.1
2018-Feb-13 18:30N 34°15' E 132°32'0 0.0
2018-Feb-13 18:00N 34°15' E 132°32'0 0.0
2018-Feb-13 17:30N 34°15' E 132°32'0 0.0
2018-Feb-13 17:00N 34°15' E 132°32'0 0.1
2018-Feb-13 16:30N 34°15' E 132°32'0 0.1
2018-Feb-13 16:00N 34°15' E 132°32'0 0.0
2018-Feb-13 15:27N 34°15' E 132°32'0 0.0
2018-Feb-13 15:00N 34°15' E 132°32'0 0.0
2018-Feb-13 14:30N 34°15' E 132°32'0 0.0
2018-Feb-13 14:00N 34°15' E 132°32'0 0.0
2018-Feb-13 13:27N 34°15' E 132°32'0 0.1
2018-Feb-13 12:57N 34°15' E 132°32'0 0.1
2018-Feb-13 12:27N 34°15' E 132°32'0 0.1
2018-Feb-13 12:00N 34°15' E 132°32'0 0.0
2018-Feb-13 11:30N 34°15' E 132°32'0 0.1
2018-Feb-13 10:57N 34°15' E 132°32'0 0.0
2018-Feb-13 10:30N 34°15' E 132°32'0 0.0
2018-Feb-13 10:00N 34°15' E 132°32'0 0.0
2018-Feb-13 09:30N 34°15' E 132°32'0 0.0
2018-Feb-13 09:00N 34°15' E 132°32'0 0.0
2018-Feb-13 08:27N 34°15' E 132°32'0 0.0
2018-Feb-13 07:57N 34°15' E 132°32'0 0.1
2018-Feb-13 07:30N 34°15' E 132°32'0 0.1
2018-Feb-13 07:00N 34°15' E 132°32'0 0.0
2018-Feb-13 06:30N 34°15' E 132°32'0 0.0
2018-Feb-13 06:00N 34°15' E 132°32'0 0.0
2018-Feb-13 05:30N 34°15' E 132°32'0 0.0
2018-Feb-13 05:00N 34°15' E 132°32'0 0.0
2018-Feb-13 04:27N 34°15' E 132°32'0 0.0
2018-Feb-13 03:54N 34°15' E 132°32'0 0.0
2018-Feb-13 03:30N 34°15' E 132°32'0 0.0
2018-Feb-13 03:00N 34°15' E 132°32'0 0.0
2018-Feb-13 02:24N 34°15' E 132°32'0 0.0
2018-Feb-13 01:57N 34°15' E 132°32'0 0.0
2018-Feb-13 01:24N 34°15' E 132°32'0 0.0
2018-Feb-13 00:57N 34°15' E 132°32'0 0.1
2018-Feb-13 00:30N 34°15' E 132°32'0 0.1
2018-Feb-13 00:00N 34°15' E 132°32'0 0.0
2018-Feb-12 23:30N 34°15' E 132°32'0 0.0
2018-Feb-12 22:57N 34°15' E 132°32'0 0.1
2018-Feb-12 22:24N 34°15' E 132°32'0 0.2
2018-Feb-12 22:00N 34°14' E 132°32'0 0.8
2018-Feb-12 21:30N 34°14' E 132°33'0 0.0
2018-Feb-12 21:00N 34°14' E 132°33'0 0.1
2018-Feb-12 20:30N 34°14' E 132°33'0 0.1
2018-Feb-12 20:01N 34°14' E 132°33'0 0.1
2018-Feb-12 19:30N 34°14' E 132°33'0 0.0
2018-Feb-12 19:00N 34°14' E 132°33'0 0.1
2018-Feb-12 18:30N 34°14' E 132°33'0 0.0
2018-Feb-12 18:00N 34°14' E 132°33'0 0.0
2018-Feb-12 17:31N 34°14' E 132°33'0 0.0
2018-Feb-12 17:00N 34°14' E 132°33'0 0.0
2018-Feb-12 16:30N 34°14' E 132°33'0 0.0
2018-Feb-12 16:00N 34°14' E 132°33'0 0.0
2018-Feb-12 15:30N 34°14' E 132°33'0 0.0
2018-Feb-12 15:00N 34°14' E 132°33'0 0.1
2018-Feb-12 14:30N 34°14' E 132°33'0 0.0
2018-Feb-12 14:00N 34°14' E 132°33'0 0.0
2018-Feb-12 13:30N 34°14' E 132°33'0 0.0
2018-Feb-12 13:00N 34°14' E 132°33'0 0.0
2018-Feb-12 12:30N 34°14' E 132°33'0 0.0
2018-Feb-12 12:01N 34°14' E 132°33'0 0.1
2018-Feb-12 11:31N 34°14' E 132°33'0 0.1
2018-Feb-12 10:59N 34°14' E 132°33'0 0.0
2018-Feb-12 10:30N 34°14' E 132°33'0 0.1
2018-Feb-12 10:00N 34°14' E 132°33'0 0.0
2018-Feb-12 09:31N 34°14' E 132°33'0 0.1
2018-Feb-12 09:01N 34°14' E 132°33'0 0.1
2018-Feb-12 08:31N 34°14' E 132°33'0 0.0
2018-Feb-12 08:00N 34°14' E 132°33'0 0.0
2018-Feb-12 07:30N 34°14' E 132°33'0 0.0
2018-Feb-12 07:01N 34°14' E 132°33'0 0.0
2018-Feb-12 06:31N 34°14' E 132°33'0 0.0
2018-Feb-12 06:00N 34°14' E 132°33'0 0.0
2018-Feb-12 05:31N 34°14' E 132°33'0 0.0
2018-Feb-12 05:00N 34°14' E 132°33'0 0.0
2018-Feb-12 04:30N 34°14' E 132°33'0 0.0
2018-Feb-12 04:00N 34°14' E 132°33'0 0.1
2018-Feb-12 03:30N 34°14' E 132°33'0 0.1
2018-Feb-12 03:00N 34°14' E 132°33'0 0.1
2018-Feb-12 02:30N 34°14' E 132°33'0 0.1
2018-Feb-12 01:58N 34°14' E 132°33'0 0.0
2018-Feb-12 01:30N 34°14' E 132°33'0 0.0
2018-Feb-12 01:01N 34°14' E 132°33'0 0.0
2018-Feb-12 00:30N 34°14' E 132°33'0 0.0
2018-Feb-12 00:00N 34°14' E 132°33'0 0.0
2018-Feb-11 23:30N 34°14' E 132°33'0 0.0
2018-Feb-11 23:00N 34°14' E 132°33'0 0.0
2018-Feb-11 22:30N 34°14' E 132°33'0 0.0
2018-Feb-11 22:00N 34°14' E 132°33'0 0.0
2018-Feb-11 21:30N 34°14' E 132°33'0 0.0
2018-Feb-11 21:00N 34°14' E 132°33'0 0.0
2018-Feb-11 20:30N 34°14' E 132°33'0 0.0
2018-Feb-11 20:00N 34°14' E 132°33'0 0.1
2018-Feb-11 19:31N 34°14' E 132°33'0 0.0
2018-Feb-11 19:00N 34°14' E 132°33'0 0.0
2018-Feb-11 18:30N 34°14' E 132°33'0 0.0
2018-Feb-11 18:00N 34°14' E 132°33'0 0.1
2018-Feb-11 17:30N 34°14' E 132°33'0 0.0
2018-Feb-11 17:00N 34°14' E 132°33'0 0.0
2018-Feb-11 16:26N 34°14' E 132°33'0 0.0
2018-Feb-11 16:01N 34°14' E 132°33'0 0.0
2018-Feb-11 15:30N 34°14' E 132°33'0 0.1
2018-Feb-11 15:00N 34°14' E 132°33'0 0.0
2018-Feb-11 14:29N 34°14' E 132°33'0 0.1
2018-Feb-11 14:01N 34°14' E 132°33'0 0.1
2018-Feb-11 13:30N 34°14' E 132°33'0 0.1
2018-Feb-11 13:00N 34°14' E 132°33'0 0.1
2018-Feb-11 12:29N 34°14' E 132°33'0 0.1
2018-Feb-11 12:00N 34°14' E 132°33'0 0.0
2018-Feb-11 11:30N 34°14' E 132°33'0 0.0
2018-Feb-11 11:00N 34°14' E 132°33'0 0.0
2018-Feb-11 10:30N 34°14' E 132°33'0 0.1
2018-Feb-11 10:01N 34°14' E 132°33'0 0.1
2018-Feb-11 09:31N 34°14' E 132°33'0 0.0
2018-Feb-11 09:00N 34°14' E 132°33'0 0.0
2018-Feb-11 08:30N 34°14' E 132°33'0 0.1
2018-Feb-11 08:00N 34°14' E 132°33'0 0.0
2018-Feb-11 07:31N 34°14' E 132°33'0 0.0
2018-Feb-11 07:00N 34°14' E 132°33'0 0.1
2018-Feb-11 06:31N 34°14' E 132°33'  
Track history (hours):
 
Tides and Currents Weather Stations Pressure Air Temp Water Temp Dewpoint Dewpoint Depression Visibility Wind Speed Wind Dir Waves Ship Positions

Shinkoumaru No 5

Last reported at 2018-Feb-21 06:07 UTC. Time now 2018-Feb-21 17:33 UTC.
Position N 34°34' E 138°15'.

Length 75 m; draft 4.7 m.

Type: Cargo ship. MMSI: 431003394.

Date/timePositionNaut miles runAvg speedWind from/ knotsBaromVisibWave heightAir tempDewpointWater temp
2018-Feb-21 06:07N 34°34' E 138°15'2312.3
2018-Feb-21 04:16N 34°35' E 138°42'513.3
2018-Feb-21 03:51N 34°35' E 138°49'512.4
2018-Feb-21 03:29N 34°36' E 138°54'811.6
2018-Feb-21 02:48N 34°41' E 139°02'2212.5
2018-Feb-21 01:00N 34°57' E 139°20'712.3
2018-Feb-21 00:29N 35°00' E 139°27'712.7
2018-Feb-20 23:56N 35°04' E 139°35'613.1
2018-Feb-20 23:29N 35°07' E 139°41'612.7
2018-Feb-20 23:00N 35°12' E 139°45'611.3
2018-Feb-20 22:31N 35°17' E 139°45'611.9
2018-Feb-20 22:01N 35°23' E 139°42'510.2
2018-Feb-20 21:31N 35°25' E 139°48'510.1
2018-Feb-20 20:58N 35°22' E 139°54'0 0.1
2018-Feb-20 20:28N 35°22' E 139°54'0 0.0
2018-Feb-20 19:52N 35°22' E 139°54'0 0.0
2018-Feb-20 19:25N 35°22' E 139°54'0 0.0
2018-Feb-20 18:58N 35°22' E 139°54'0 0.0
2018-Feb-20 18:28N 35°22' E 139°54'0 0.0
2018-Feb-20 17:58N 35°22' E 139°54'0 0.0
2018-Feb-20 17:22N 35°22' E 139°54'0 0.0
2018-Feb-20 16:58N 35°22' E 139°54'0 0.0
2018-Feb-20 16:28N 35°22' E 139°54'0 0.0
2018-Feb-20 15:58N 35°22' E 139°54'0 0.0
2018-Feb-20 15:28N 35°22' E 139°54'0 0.0
2018-Feb-20 14:58N 35°22' E 139°54'0 0.0
2018-Feb-20 14:28N 35°22' E 139°54'0 0.0
2018-Feb-20 13:49N 35°22' E 139°54'0 0.0
2018-Feb-20 13:22N 35°22' E 139°54'0 0.0
2018-Feb-20 12:58N 35°22' E 139°54'0 0.0
2018-Feb-20 12:22N 35°22' E 139°54'0 0.0
2018-Feb-20 11:40N 35°22' E 139°54'0 0.0
2018-Feb-20 11:25N 35°22' E 139°54'0 0.0
2018-Feb-20 11:00N 35°22' E 139°54'1 1.3
2018-Feb-20 10:28N 35°22' E 139°53'0 0.1
2018-Feb-20 10:01N 35°22' E 139°53'4 8.3
2018-Feb-20 09:30N 35°26' E 139°52'612.4
2018-Feb-20 09:00N 35°32' E 139°55'612.4
2018-Feb-20 08:30N 35°38' E 139°58'  
2018-Feb-18 00:20N 35°39' E 139°58'1 0.4
2018-Feb-17 21:06N 35°37' E 139°58'0 0.0
2018-Feb-17 20:42N 35°37' E 139°58'0 0.0
2018-Feb-17 20:30N 35°37' E 139°58'2 3.0
2018-Feb-17 19:57N 35°36' E 139°58'611.9
2018-Feb-17 19:30N 35°31' E 139°54'611.7
2018-Feb-17 19:00N 35°27' E 139°49'611.6
2018-Feb-17 18:30N 35°22' E 139°45'510.7
2018-Feb-17 18:01N 35°17' E 139°46'510.6
2018-Feb-17 17:30N 35°12' E 139°47'510.7
2018-Feb-17 17:00N 35°07' E 139°44'610.6
2018-Feb-17 16:24N 35°02' E 139°39'1311.8
2018-Feb-17 15:16N 34°56' E 139°25'512.7
2018-Feb-17 14:52N 34°53' E 139°19'512.8
2018-Feb-17 14:30N 34°50' E 139°15'913.0
2018-Feb-17 13:49N 34°43' E 139°08'412.3
2018-Feb-17 13:30N 34°41' E 139°04'612.6
2018-Feb-17 13:00N 34°37' E 138°58'713.2
2018-Feb-17 12:29N 34°34' E 138°51'612.3
2018-Feb-17 12:00N 34°34' E 138°43'812.2
2018-Feb-17 11:20N 34°34' E 138°34'411.8
2018-Feb-17 11:00N 34°34' E 138°29'612.0
2018-Feb-17 10:29N 34°34' E 138°21'612.3
2018-Feb-17 10:00N 34°34' E 138°14'712.8
2018-Feb-17 09:29N 34°34' E 138°06'4212.2
2018-Feb-17 06:03N 34°33' E 137°15'3310.8
2018-Feb-17 03:02N 34°10' E 136°48'112.9
2018-Feb-17 02:56N 34°09' E 136°47'85 9.1
2018-Feb-16 17:30N 33°48' E 135°07'712.1
2018-Feb-16 16:57N 33°53' E 135°02'612.8
2018-Feb-16 16:30N 33°59' E 135°00'612.6
2018-Feb-16 16:00N 34°05' E 134°59'612.7
2018-Feb-16 15:30N 34°11' E 134°59'612.9
2018-Feb-16 15:01N 34°18' E 134°58'612.3
2018-Feb-16 14:30N 34°24' E 134°60'612.0
2018-Feb-16 14:01N 34°30' E 135°01'611.3
2018-Feb-16 13:30N 34°35' E 135°03'4 8.9
2018-Feb-16 13:00N 34°37' E 134°58'5 9.9
2018-Feb-16 12:30N 34°38' E 134°52'510.2
2018-Feb-16 12:00N 34°42' E 134°48'1 0.1
2018-Feb-15 20:27N 34°43' E 134°49'2 4.3
2018-Feb-15 20:00N 34°42' E 134°50'1 0.1
2018-Feb-15 05:15N 34°43' E 134°51'0 0.0
2018-Feb-15 04:39N 34°43' E 134°51'0 0.0
2018-Feb-15 04:22N 34°43' E 134°51'0 0.4
2018-Feb-15 04:00N 34°43' E 134°51'4 7.5
2018-Feb-15 03:30N 34°39' E 134°52'611.3
2018-Feb-15 03:00N 34°38' E 134°58'612.4
2018-Feb-15 02:30N 34°36' E 135°05'713.1
2018-Feb-15 02:00N 34°34' E 135°13'612.9
2018-Feb-15 01:30N 34°33' E 135°21'3 4.6
2018-Feb-15 00:56N 34°31' E 135°24'0 0.0
2018-Feb-15 00:28N 34°31' E 135°24'0 0.3
2018-Feb-15 00:00N 34°31' E 135°23'2 4.1
2018-Feb-14 23:31N 34°33' E 135°21'0 0.4
2018-Feb-14 23:00N 34°32' E 135°22'0 0.0
2018-Feb-14 22:27N 34°32' E 135°22'0 0.0
2018-Feb-14 22:00N 34°32' E 135°22'0 0.0
2018-Feb-14 21:30N 34°32' E 135°22'0 0.0
2018-Feb-14 20:57N 34°32' E 135°22'0 0.0
2018-Feb-14 20:30N 34°32' E 135°22'0 0.0
2018-Feb-14 20:00N 34°32' E 135°22'0 0.1
2018-Feb-14 19:27N 34°32' E 135°22'0 0.1
2018-Feb-14 18:57N 34°32' E 135°22'0 0.0
2018-Feb-14 18:30N 34°32' E 135°22'0 0.1
2018-Feb-14 17:57N 34°32' E 135°22'0 0.0
2018-Feb-14 17:30N 34°32' E 135°22'0 0.1
2018-Feb-14 17:00N 34°32' E 135°22'0 0.0
2018-Feb-14 16:27N 34°32' E 135°22'0 0.1
2018-Feb-14 16:00N 34°32' E 135°22'4 7.7
2018-Feb-14 15:30N 34°33' E 135°17'612.3
2018-Feb-14 15:01N 34°34' E 135°10'713.6
2018-Feb-14 14:31N 34°36' E 135°02'713.1
2018-Feb-14 14:00N 34°35' E 134°54'713.1
2018-Feb-14 13:30N 34°33' E 134°47'612.8
2018-Feb-14 13:00N 34°30' E 134°40'612.8
2018-Feb-14 12:30N 34°28' E 134°32'612.7
2018-Feb-14 12:00N 34°25' E 134°25'712.3
2018-Feb-14 11:28N 34°24' E 134°17'8110.8
2018-Feb-14 03:57N 34°06' E 132°42'512.6
2018-Feb-14 03:30N 34°04' E 132°36'811.3
2018-Feb-14 02:50N 34°05' E 132°27'410.6
2018-Feb-14 02:30N 34°08' E 132°29'612.3
2018-Feb-14 02:00N 34°14' E 132°32'1 1.9
2018-Feb-14 01:28N 34°15' E 132°33'0 0.0
2018-Feb-14 00:55N 34°15' E 132°33'0 0.0
2018-Feb-14 00:25N 34°15' E 132°33'0 0.0
2018-Feb-13 23:52N 34°15' E 132°33'0 0.0
2018-Feb-13 23:28N 34°15' E 132°33'0 0.2
2018-Feb-13 22:58N 34°14' E 132°32'0 0.2
2018-Feb-13 22:29N 34°14' E 132°32'0 0.0
2018-Feb-13 22:00N 34°14' E 132°32'0 0.4
2018-Feb-13 21:30N 34°15' E 132°32'0 0.0
2018-Feb-13 21:00N 34°15' E 132°32'0 0.0
2018-Feb-13 20:30N 34°15' E 132°32'0 0.0
2018-Feb-13 20:00N 34°15' E 132°32'0 0.0
2018-Feb-13 19:27N 34°15' E 132°32'0 0.1
2018-Feb-13 19:00N 34°15' E 132°32'0 0.1
2018-Feb-13 18:30N 34°15' E 132°32'0 0.0
2018-Feb-13 18:00N 34°15' E 132°32'0 0.0
2018-Feb-13 17:30N 34°15' E 132°32'0 0.0
2018-Feb-13 17:00N 34°15' E 132°32'0 0.1
2018-Feb-13 16:30N 34°15' E 132°32'0 0.1
2018-Feb-13 16:00N 34°15' E 132°32'0 0.0
2018-Feb-13 15:27N 34°15' E 132°32'0 0.0
2018-Feb-13 15:00N 34°15' E 132°32'0 0.0
2018-Feb-13 14:30N 34°15' E 132°32'0 0.0
2018-Feb-13 14:00N 34°15' E 132°32'0 0.0
2018-Feb-13 13:27N 34°15' E 132°32'0 0.1
2018-Feb-13 12:57N 34°15' E 132°32'0 0.1
2018-Feb-13 12:27N 34°15' E 132°32'0 0.1
2018-Feb-13 12:00N 34°15' E 132°32'0 0.0
2018-Feb-13 11:30N 34°15' E 132°32'0 0.1
2018-Feb-13 10:57N 34°15' E 132°32'0 0.0
2018-Feb-13 10:30N 34°15' E 132°32'0 0.0
2018-Feb-13 10:00N 34°15' E 132°32'0 0.0
2018-Feb-13 09:30N 34°15' E 132°32'0 0.0
2018-Feb-13 09:00N 34°15' E 132°32'0 0.0
2018-Feb-13 08:27N 34°15' E 132°32'0 0.0
2018-Feb-13 07:57N 34°15' E 132°32'0 0.1
2018-Feb-13 07:30N 34°15' E 132°32'0 0.1
2018-Feb-13 07:00N 34°15' E 132°32'0 0.0
2018-Feb-13 06:30N 34°15' E 132°32'0 0.0
2018-Feb-13 06:00N 34°15' E 132°32'0 0.0
2018-Feb-13 05:30N 34°15' E 132°32'0 0.0
2018-Feb-13 05:00N 34°15' E 132°32'0 0.0
2018-Feb-13 04:27N 34°15' E 132°32'0 0.0
2018-Feb-13 03:54N 34°15' E 132°32'0 0.0
2018-Feb-13 03:30N 34°15' E 132°32'0 0.0
2018-Feb-13 03:00N 34°15' E 132°32'0 0.0
2018-Feb-13 02:24N 34°15' E 132°32'0 0.0
2018-Feb-13 01:57N 34°15' E 132°32'0 0.0
2018-Feb-13 01:24N 34°15' E 132°32'0 0.0
2018-Feb-13 00:57N 34°15' E 132°32'0 0.1
2018-Feb-13 00:30N 34°15' E 132°32'0 0.1
2018-Feb-13 00:00N 34°15' E 132°32'0 0.0
2018-Feb-12 23:30N 34°15' E 132°32'0 0.0
2018-Feb-12 22:57N 34°15' E 132°32'0 0.1
2018-Feb-12 22:24N 34°15' E 132°32'0 0.2
2018-Feb-12 22:00N 34°14' E 132°32'0 0.8
2018-Feb-12 21:30N 34°14' E 132°33'0 0.0
2018-Feb-12 21:00N 34°14' E 132°33'0 0.1
2018-Feb-12 20:30N 34°14' E 132°33'0 0.1
2018-Feb-12 20:01N 34°14' E 132°33'0 0.1
2018-Feb-12 19:30N 34°14' E 132°33'0 0.0
2018-Feb-12 19:00N 34°14' E 132°33'0 0.1
2018-Feb-12 18:30N 34°14' E 132°33'0 0.0
2018-Feb-12 18:00N 34°14' E 132°33'0 0.0
2018-Feb-12 17:31N 34°14' E 132°33'0 0.0
2018-Feb-12 17:00N 34°14' E 132°33'0 0.0
2018-Feb-12 16:30N 34°14' E 132°33'0 0.0
2018-Feb-12 16:00N 34°14' E 132°33'0 0.0
2018-Feb-12 15:30N 34°14' E 132°33'0 0.0
2018-Feb-12 15:00N 34°14' E 132°33'0 0.1
2018-Feb-12 14:30N 34°14' E 132°33'0 0.0
2018-Feb-12 14:00N 34°14' E 132°33'0 0.0
2018-Feb-12 13:30N 34°14' E 132°33'0 0.0
2018-Feb-12 13:00N 34°14' E 132°33'0 0.0
2018-Feb-12 12:30N 34°14' E 132°33'0 0.0
2018-Feb-12 12:01N 34°14' E 132°33'0 0.1
2018-Feb-12 11:31N 34°14' E 132°33'0 0.1
2018-Feb-12 10:59N 34°14' E 132°33'0 0.0
2018-Feb-12 10:30N 34°14' E 132°33'0 0.1
2018-Feb-12 10:00N 34°14' E 132°33'0 0.0
2018-Feb-12 09:31N 34°14' E 132°33'0 0.1
2018-Feb-12 09:01N 34°14' E 132°33'0 0.1
2018-Feb-12 08:31N 34°14' E 132°33'0 0.0
2018-Feb-12 08:00N 34°14' E 132°33'0 0.0
2018-Feb-12 07:30N 34°14' E 132°33'0 0.0
2018-Feb-12 07:01N 34°14' E 132°33'0 0.0
2018-Feb-12 06:31N 34°14' E 132°33'0 0.0
2018-Feb-12 06:00N 34°14' E 132°33'0 0.0
2018-Feb-12 05:31N 34°14' E 132°33'0 0.0
2018-Feb-12 05:00N 34°14' E 132°33'0 0.0
2018-Feb-12 04:30N 34°14' E 132°33'0 0.0
2018-Feb-12 04:00N 34°14' E 132°33'0 0.1
2018-Feb-12 03:30N 34°14' E 132°33'0 0.1
2018-Feb-12 03:00N 34°14' E 132°33'0 0.1
2018-Feb-12 02:30N 34°14' E 132°33'0 0.1
2018-Feb-12 01:58N 34°14' E 132°33'0 0.0
2018-Feb-12 01:30N 34°14' E 132°33'0 0.0
2018-Feb-12 01:01N 34°14' E 132°33'0 0.0
2018-Feb-12 00:30N 34°14' E 132°33'0 0.0
2018-Feb-12 00:00N 34°14' E 132°33'0 0.0
2018-Feb-11 23:30N 34°14' E 132°33'0 0.0
2018-Feb-11 23:00N 34°14' E 132°33'0 0.0
2018-Feb-11 22:30N 34°14' E 132°33'0 0.0
2018-Feb-11 22:00N 34°14' E 132°33'0 0.0
2018-Feb-11 21:30N 34°14' E 132°33'0 0.0
2018-Feb-11 21:00N 34°14' E 132°33'0 0.0
2018-Feb-11 20:30N 34°14' E 132°33'0 0.0
2018-Feb-11 20:00N 34°14' E 132°33'0 0.1
2018-Feb-11 19:31N 34°14' E 132°33'0 0.0
2018-Feb-11 19:00N 34°14' E 132°33'0 0.0
2018-Feb-11 18:30N 34°14' E 132°33'0 0.0
2018-Feb-11 18:00N 34°14' E 132°33'0 0.1
2018-Feb-11 17:30N 34°14' E 132°33'0 0.0
2018-Feb-11 17:00N 34°14' E 132°33'0 0.0
2018-Feb-11 16:26N 34°14' E 132°33'0 0.0
2018-Feb-11 16:01N 34°14' E 132°33'0 0.0
2018-Feb-11 15:30N 34°14' E 132°33'0 0.1
2018-Feb-11 15:00N 34°14' E 132°33'0 0.0
2018-Feb-11 14:29N 34°14' E 132°33'0 0.1
2018-Feb-11 14:01N 34°14' E 132°33'0 0.1
2018-Feb-11 13:30N 34°14' E 132°33'0 0.1
2018-Feb-11 13:00N 34°14' E 132°33'0 0.1
2018-Feb-11 12:29N 34°14' E 132°33'0 0.1
2018-Feb-11 12:00N 34°14' E 132°33'0 0.0
2018-Feb-11 11:30N 34°14' E 132°33'0 0.0
2018-Feb-11 11:00N 34°14' E 132°33'0 0.0
2018-Feb-11 10:30N 34°14' E 132°33'0 0.1
2018-Feb-11 10:01N 34°14' E 132°33'0 0.1
2018-Feb-11 09:31N 34°14' E 132°33'0 0.0
2018-Feb-11 09:00N 34°14' E 132°33'0 0.0
2018-Feb-11 08:30N 34°14' E 132°33'0 0.1
2018-Feb-11 08:00N 34°14' E 132°33'0 0.0
2018-Feb-11 07:31N 34°14' E 132°33'0 0.0
2018-Feb-11 07:00N 34°14' E 132°33'0 0.1
2018-Feb-11 06:31N 34°14' E 132°33'  

Dump ship's entire track history